createdAt,value
2019-02-02T00:02:02.014Z,-1.47
2019-02-02T00:04:32.569Z,-1.45
2019-02-02T00:07:03.083Z,-1.42
2019-02-02T00:09:33.725Z,-1.42
2019-02-02T00:12:04.239Z,-1.32
2019-02-02T00:14:34.836Z,-1.44
2019-02-02T00:17:05.570Z,-1.49
2019-02-02T00:19:36.159Z,-1.44
2019-02-02T00:22:08.599Z,-1.51
2019-02-02T00:24:39.228Z,-1.52
2019-02-02T00:27:09.761Z,-1.43
2019-02-02T00:29:40.251Z,-1.47
2019-02-02T00:32:10.807Z,-1.56
2019-02-02T00:34:41.346Z,-1.55
2019-02-02T00:37:11.933Z,-1.58
2019-02-02T00:39:42.423Z,-1.55
2019-02-02T00:42:12.950Z,-1.57
2019-02-02T00:44:43.479Z,-1.55
2019-02-02T00:47:14.051Z,-1.60
2019-02-02T00:49:44.678Z,-1.60
2019-02-02T00:52:15.189Z,-1.58
2019-02-02T00:54:45.746Z,-1.56
2019-02-02T00:57:16.304Z,-1.58
2019-02-02T00:59:46.853Z,-1.61
2019-02-02T01:02:17.485Z,-1.61
2019-02-02T01:04:48.082Z,-1.57
2019-02-02T01:07:19.691Z,-1.58
2019-02-02T01:09:50.237Z,-1.50
2019-02-02T01:12:20.754Z,-1.53
2019-02-02T01:14:51.321Z,-1.52
2019-02-02T01:17:21.886Z,-1.46
2019-02-02T01:19:52.406Z,-1.53
2019-02-02T01:22:22.948Z,-1.52
2019-02-02T01:24:53.558Z,-1.56
2019-02-02T01:27:24.090Z,-1.61
2019-02-02T01:29:54.590Z,-1.61
2019-02-02T01:32:25.266Z,-1.52
2019-02-02T01:34:55.741Z,-1.57
2019-02-02T01:37:26.300Z,-1.56
2019-02-02T01:39:56.853Z,-1.60
2019-02-02T01:42:27.372Z,-1.67
2019-02-02T01:44:57.953Z,-1.69
2019-02-02T01:47:28.535Z,-1.73
2019-02-02T01:49:59.146Z,-1.72
2019-02-02T01:52:29.644Z,-1.82
2019-02-02T01:55:00.313Z,-1.72
2019-02-02T01:57:30.855Z,-1.78
2019-02-02T02:00:01.402Z,-1.70
2019-02-02T02:02:31.977Z,-1.79
2019-02-02T02:05:02.500Z,-1.78
2019-02-02T02:07:33.029Z,-1.68
2019-02-02T02:10:03.884Z,-1.73
2019-02-02T02:12:34.483Z,-1.77
2019-02-02T02:15:05.760Z,-1.78
2019-02-02T02:17:36.322Z,-1.84
2019-02-02T02:20:08.481Z,-1.87
2019-02-02T02:22:41.099Z,-1.85
2019-02-02T02:25:14.436Z,-1.87
2019-02-02T02:27:44.992Z,-1.83
2019-02-02T02:30:23.597Z,-1.79
2019-02-02T02:32:54.557Z,-1.69
2019-02-02T02:35:25.081Z,-1.62
2019-02-02T02:37:57.111Z,-1.56
2019-02-02T02:40:28.540Z,-1.71
2019-02-02T02:42:59.161Z,-1.82
2019-02-02T02:45:30.516Z,-1.81
2019-02-02T02:48:01.046Z,-1.70
2019-02-02T02:50:33.758Z,-1.79
2019-02-02T02:53:04.274Z,-1.80
2019-02-02T02:55:34.959Z,-1.79
2019-02-02T02:58:06.103Z,-1.76
2019-02-02T03:00:36.602Z,-1.79
2019-02-02T03:03:07.416Z,-1.73
2019-02-02T03:05:37.951Z,-1.77
2019-02-02T03:08:08.560Z,-1.72
2019-02-02T03:10:39.109Z,-1.74
2019-02-02T03:13:09.774Z,-1.71
2019-02-02T03:15:40.343Z,-1.68
2019-02-02T03:18:10.893Z,-1.75
2019-02-02T03:20:41.454Z,-1.79
2019-02-02T03:23:11.978Z,-1.80
2019-02-02T03:25:42.505Z,-1.83
2019-02-02T03:28:13.101Z,-1.90
2019-02-02T03:30:43.659Z,-1.88
2019-02-02T03:33:14.143Z,-1.87
2019-02-02T03:35:44.728Z,-1.83
2019-02-02T03:38:15.244Z,-1.83
2019-02-02T03:40:45.724Z,-1.85
2019-02-02T03:43:16.277Z,-1.72
2019-02-02T03:45:46.836Z,-1.66
2019-02-02T03:48:17.327Z,-1.50
2019-02-02T03:50:47.852Z,-1.63
2019-02-02T03:53:18.325Z,-1.53
2019-02-02T03:55:49.029Z,-1.59
2019-02-02T03:58:19.689Z,-1.62
2019-02-02T04:00:50.207Z,-1.57
2019-02-02T04:03:20.791Z,-1.47
2019-02-02T04:05:51.526Z,-1.39
2019-02-02T04:08:22.072Z,-1.47
2019-02-02T04:10:52.565Z,-1.52
2019-02-02T04:13:23.127Z,-1.40
2019-02-02T04:15:53.595Z,-1.45
2019-02-02T04:18:24.103Z,-1.44
2019-02-02T04:20:54.625Z,-1.47
2019-02-02T04:23:25.111Z,-1.37
2019-02-02T04:25:58.653Z,-1.50
2019-02-02T04:28:29.126Z,-1.39
2019-02-02T04:30:59.626Z,-1.45
2019-02-02T04:33:30.133Z,-1.38
2019-02-02T04:36:00.597Z,-1.39
2019-02-02T04:38:31.226Z,-1.44
2019-02-02T04:41:01.796Z,-1.30
2019-02-02T04:43:32.301Z,-1.35
2019-02-02T04:46:02.763Z,-1.33
2019-02-02T04:48:33.340Z,-1.33
2019-02-02T04:51:03.829Z,-1.33
2019-02-02T04:53:34.320Z,-1.35
2019-02-02T04:56:04.821Z,-1.30
2019-02-02T04:58:35.311Z,-1.25
2019-02-02T05:01:05.878Z,-1.12
2019-02-02T05:03:36.414Z,-1.10
2019-02-02T05:06:06.921Z,-1.20
2019-02-02T05:08:37.415Z,-1.21
2019-02-02T05:11:07.942Z,-1.25
2019-02-02T05:13:38.457Z,-1.02
2019-02-02T05:16:08.952Z,-1.14
2019-02-02T05:18:39.525Z,-1.09
2019-02-02T05:21:10.097Z,-1.10
2019-02-02T05:23:40.622Z,-1.04
2019-02-02T05:26:11.185Z,-1.07
2019-02-02T05:28:41.667Z,-1.02
2019-02-02T05:31:12.142Z,-1.03
2019-02-02T05:33:42.687Z,-1.06
2019-02-02T05:36:13.268Z,-1.09
2019-02-02T05:38:43.781Z,-1.08
2019-02-02T05:41:14.289Z,-1.08
2019-02-02T05:43:44.790Z,-1.02
2019-02-02T05:46:15.313Z,-0.97
2019-02-02T05:48:45.793Z,-1.01
2019-02-02T05:51:16.282Z,-0.96
2019-02-02T05:53:46.782Z,-0.90
2019-02-02T05:56:17.234Z,-0.78
2019-02-02T05:58:47.713Z,-0.80
2019-02-02T06:01:20.447Z,-0.78
2019-02-02T06:03:51.029Z,-0.70
2019-02-02T06:06:21.533Z,-0.80
2019-02-02T06:08:52.118Z,-0.79
2019-02-02T06:11:22.606Z,-0.66
2019-02-02T06:13:53.141Z,-0.76
2019-02-02T06:16:23.652Z,-0.75
2019-02-02T06:18:54.199Z,-0.75
2019-02-02T06:21:24.691Z,-0.77
2019-02-02T06:23:55.175Z,-0.71
2019-02-02T06:26:25.712Z,-0.82
2019-02-02T06:28:56.387Z,-0.83
2019-02-02T06:31:26.894Z,-0.85
2019-02-02T06:33:57.508Z,-0.84
2019-02-02T06:36:27.980Z,-0.83
2019-02-02T06:38:58.476Z,-0.87
2019-02-02T06:41:28.995Z,-0.87
2019-02-02T06:43:59.506Z,-0.79
2019-02-02T06:46:30.007Z,-0.69
2019-02-02T06:49:01.599Z,-0.82
2019-02-02T06:51:32.286Z,-0.83
2019-02-02T06:54:02.866Z,-0.77
2019-02-02T06:56:33.363Z,-0.85
2019-02-02T06:59:03.883Z,-0.67
2019-02-02T07:01:34.421Z,-0.74
2019-02-02T07:04:07.920Z,-0.67
2019-02-02T07:06:40.181Z,-0.68
2019-02-02T07:09:11.048Z,-0.71
2019-02-02T07:11:41.555Z,-0.73
2019-02-02T07:14:12.455Z,-0.68
2019-02-02T07:16:48.838Z,-0.68
2019-02-02T07:19:19.465Z,-0.53
2019-02-02T07:21:49.959Z,-0.35
2019-02-02T07:24:20.432Z,-0.48
2019-02-02T07:26:50.995Z,-0.52
2019-02-02T07:29:21.514Z,-0.50
2019-02-02T07:31:52.049Z,-0.47
2019-02-02T07:34:22.744Z,-0.45
2019-02-02T07:36:53.228Z,-0.36
2019-02-02T07:39:24.293Z,-0.35
2019-02-02T07:41:54.737Z,-0.31
2019-02-02T07:44:25.279Z,-0.24
2019-02-02T07:46:55.739Z,-0.19
2019-02-02T07:49:26.322Z,-0.26
2019-02-02T07:51:56.825Z,-0.15
2019-02-02T07:54:28.581Z,-0.19
2019-02-02T07:56:59.118Z,-0.18
2019-02-02T07:59:29.593Z,-0.14
2019-02-02T08:02:00.146Z,-0.03
2019-02-02T08:04:30.737Z,-0.14
2019-02-02T08:07:01.296Z,-0.11
2019-02-02T08:09:31.752Z,-0.03
2019-02-02T08:12:02.273Z,0.04
2019-02-02T08:14:32.779Z,0.09
2019-02-02T08:17:03.426Z,0.14
2019-02-02T08:19:34.150Z,0.32
2019-02-02T08:22:04.750Z,0.22
2019-02-02T08:24:35.206Z,0.28
2019-02-02T08:27:05.845Z,0.26
2019-02-02T08:29:36.354Z,0.33
2019-02-02T08:32:07.214Z,0.22
2019-02-02T08:34:37.747Z,0.27
2019-02-02T08:37:08.247Z,0.24
2019-02-02T08:39:38.765Z,0.29
2019-02-02T08:42:09.270Z,0.40
2019-02-02T08:44:39.747Z,0.43
2019-02-02T08:47:10.207Z,0.49
2019-02-02T08:49:40.742Z,0.57
2019-02-02T08:52:13.142Z,0.62
2019-02-02T08:54:43.681Z,0.59
2019-02-02T08:57:14.217Z,0.55
2019-02-02T08:59:44.678Z,0.72
2019-02-02T09:02:15.172Z,0.79
2019-02-02T09:04:45.695Z,0.81
2019-02-02T09:07:16.212Z,0.84
2019-02-02T09:09:46.681Z,0.86
2019-02-02T09:12:17.187Z,1.00
2019-02-02T09:14:47.707Z,0.90
2019-02-02T09:17:18.188Z,0.95
2019-02-02T09:19:48.674Z,0.96
2019-02-02T09:22:19.214Z,0.96
2019-02-02T09:24:51.821Z,0.91
2019-02-02T09:27:21.956Z,1.12
2019-02-02T09:29:52.557Z,1.31
2019-02-02T09:32:23.020Z,1.16
2019-02-02T09:34:53.509Z,1.30
2019-02-02T09:37:24.073Z,1.34
2019-02-02T09:39:54.595Z,1.27
2019-02-02T09:42:25.242Z,1.24
2019-02-02T09:47:24.852Z,1.32
2019-02-02T09:49:55.412Z,1.37
2019-02-02T09:52:25.903Z,1.44
2019-02-02T09:54:56.484Z,1.42
2019-02-02T09:57:27.762Z,1.53
2019-02-02T09:59:58.712Z,1.49
2019-02-02T10:02:29.267Z,1.64
2019-02-02T10:04:59.771Z,1.50
2019-02-02T10:07:30.298Z,1.71
2019-02-02T10:10:00.783Z,1.73
2019-02-02T10:12:31.358Z,1.66
2019-02-02T10:15:01.839Z,1.66
2019-02-02T10:17:32.359Z,1.74
2019-02-02T10:20:02.889Z,1.77
2019-02-02T10:22:33.428Z,1.72
2019-02-02T10:25:04.034Z,1.63
2019-02-02T10:27:34.666Z,1.84
2019-02-02T10:30:07.795Z,1.82
2019-02-02T10:32:38.300Z,1.82
2019-02-02T10:35:09.004Z,1.76
2019-02-02T10:37:39.565Z,1.78
2019-02-02T10:40:10.692Z,1.78
2019-02-02T10:42:41.451Z,1.91
2019-02-02T10:45:12.592Z,1.96
2019-02-02T10:47:43.161Z,2.19
2019-02-02T10:50:15.370Z,2.18
2019-02-02T10:52:46.040Z,1.93
2019-02-02T10:55:16.661Z,1.96
2019-02-02T10:57:47.353Z,1.99
2019-02-02T11:00:27.719Z,2.13
2019-02-02T11:02:58.471Z,2.08
2019-02-02T11:05:30.109Z,2.05
2019-02-02T11:08:00.730Z,2.13
2019-02-02T11:10:32.444Z,2.22
2019-02-02T11:13:03.146Z,2.36
2019-02-02T11:15:33.642Z,2.38
2019-02-02T11:18:05.082Z,2.46
2019-02-02T11:20:36.690Z,2.43
2019-02-02T11:23:07.545Z,2.49
2019-02-02T11:25:38.280Z,2.48
2019-02-02T11:28:09.145Z,2.51
2019-02-02T11:30:39.914Z,2.51
2019-02-02T11:33:10.942Z,2.57
2019-02-02T11:35:41.489Z,2.67
2019-02-02T11:38:12.020Z,2.61
2019-02-02T11:40:42.535Z,2.66
2019-02-02T11:43:13.053Z,2.48
2019-02-02T11:45:43.553Z,2.41
2019-02-02T11:48:15.162Z,2.55
2019-02-02T11:50:45.790Z,2.61
2019-02-02T11:53:16.281Z,2.55
2019-02-02T11:55:46.867Z,2.62
2019-02-02T11:58:17.320Z,2.57
2019-02-02T12:00:47.834Z,2.51
2019-02-02T12:03:18.375Z,2.57
2019-02-02T12:05:48.953Z,2.64
2019-02-02T12:08:19.476Z,2.71
2019-02-02T12:10:50.003Z,2.72
2019-02-02T12:13:20.659Z,2.59
2019-02-02T12:15:51.170Z,2.75
2019-02-02T12:18:21.694Z,2.72
2019-02-02T12:20:52.216Z,2.65
2019-02-02T12:23:22.807Z,2.64
2019-02-02T12:25:53.476Z,2.58
2019-02-02T12:28:23.955Z,2.59
2019-02-02T12:30:54.563Z,2.59
2019-02-02T12:33:25.932Z,2.61
2019-02-02T12:35:56.699Z,2.79
2019-02-02T12:38:27.235Z,2.69
2019-02-02T12:40:59.733Z,2.61
2019-02-02T12:43:30.048Z,2.58
2019-02-02T12:46:00.619Z,2.62
2019-02-02T12:48:32.368Z,2.63
2019-02-02T12:51:04.654Z,2.67
2019-02-02T12:53:35.186Z,2.70
2019-02-02T12:56:05.759Z,2.82
2019-02-02T12:58:36.239Z,2.75
2019-02-02T13:01:06.843Z,2.80
2019-02-02T13:03:37.416Z,2.93
2019-02-02T13:06:07.938Z,2.83
2019-02-02T13:08:38.469Z,2.77
2019-02-02T13:11:08.998Z,2.68
2019-02-02T13:13:42.414Z,2.67
2019-02-02T13:16:11.780Z,2.62
2019-02-02T13:18:42.264Z,2.72
2019-02-02T13:21:12.805Z,2.65
2019-02-02T13:23:43.450Z,2.61
2019-02-02T13:26:14.033Z,2.60
2019-02-02T13:28:44.618Z,2.58
2019-02-02T13:31:15.181Z,2.77
2019-02-02T13:33:45.757Z,2.70
2019-02-02T13:36:16.398Z,2.72
2019-02-02T13:38:46.868Z,2.84
2019-02-02T13:41:17.430Z,2.81
2019-02-02T13:43:47.926Z,2.72
2019-02-02T13:46:18.436Z,2.71
2019-02-02T13:48:51.007Z,2.68
2019-02-02T13:51:21.134Z,2.72
2019-02-02T13:53:51.698Z,2.80
2019-02-02T13:56:22.514Z,2.72
2019-02-02T13:58:53.087Z,2.88
2019-02-02T14:01:23.738Z,2.89
2019-02-02T14:03:54.216Z,2.81
2019-02-02T14:06:24.745Z,2.91
2019-02-02T14:08:55.256Z,2.91
2019-02-02T14:11:25.785Z,2.84
2019-02-02T14:13:56.338Z,2.99
2019-02-02T14:16:26.869Z,2.81
2019-02-02T14:18:57.353Z,2.69
2019-02-02T14:21:28.055Z,2.82
2019-02-02T14:23:58.572Z,2.70
2019-02-02T14:26:29.078Z,2.67
2019-02-02T14:28:59.597Z,2.83
2019-02-02T14:31:30.091Z,2.80
2019-02-02T14:34:00.649Z,2.73
2019-02-02T14:36:31.174Z,2.84
2019-02-02T14:39:01.684Z,2.89
2019-02-02T14:41:32.166Z,2.86
2019-02-02T14:44:02.650Z,2.75
2019-02-02T14:46:33.225Z,2.76
2019-02-02T14:49:03.710Z,2.75
2019-02-02T14:51:34.235Z,2.88
2019-02-02T14:54:05.462Z,2.85
2019-02-02T14:56:36.014Z,2.71
2019-02-02T14:59:06.627Z,2.64
2019-02-02T15:01:37.253Z,2.59
2019-02-02T15:04:07.758Z,2.68
2019-02-02T15:06:38.325Z,2.83
2019-02-02T15:09:09.692Z,2.82
2019-02-02T15:11:41.002Z,2.83
2019-02-02T15:14:11.654Z,2.81
2019-02-02T15:16:42.200Z,2.74
2019-02-02T15:19:12.731Z,2.57
2019-02-02T15:21:43.606Z,2.76
2019-02-02T15:24:14.126Z,2.77
2019-02-02T15:26:44.611Z,2.76
2019-02-02T15:29:15.168Z,2.64
2019-02-02T15:31:45.688Z,2.51
2019-02-02T15:34:16.203Z,2.67
2019-02-02T15:36:46.756Z,2.62
2019-02-02T15:39:17.263Z,2.56
2019-02-02T15:41:52.911Z,2.68
2019-02-02T15:44:20.243Z,2.74
2019-02-02T15:49:20.129Z,2.60
2019-02-02T15:51:51.316Z,2.53
2019-02-02T15:54:22.161Z,2.57
2019-02-02T15:56:54.768Z,2.46
2019-02-02T15:59:25.211Z,2.48
2019-02-02T16:01:55.851Z,2.33
2019-02-02T16:04:26.541Z,2.32
2019-02-02T16:06:57.243Z,2.40
2019-02-02T16:09:28.086Z,2.42
2019-02-02T16:11:59.660Z,2.37
2019-02-02T16:14:30.496Z,2.16
2019-02-02T16:17:39.949Z,2.06
2019-02-02T16:20:20.708Z,2.02
2019-02-02T16:22:58.234Z,2.07
2019-02-02T16:25:48.703Z,1.96
2019-02-02T16:28:38.654Z,1.81
2019-02-02T16:31:12.957Z,1.83
2019-02-02T16:33:43.997Z,1.80
2019-02-02T16:36:14.673Z,1.78
2019-02-02T16:38:45.608Z,1.82
2019-02-02T16:41:16.693Z,1.70
2019-02-02T16:43:48.575Z,1.80
2019-02-02T16:46:20.877Z,1.78
2019-02-02T16:48:51.545Z,1.70
2019-02-02T16:51:22.234Z,1.72
2019-02-02T16:53:52.932Z,1.74
2019-02-02T16:56:23.568Z,1.75
2019-02-02T16:58:54.593Z,1.70
2019-02-02T17:01:25.264Z,1.72
2019-02-02T17:03:56.083Z,1.67
2019-02-02T17:06:26.887Z,1.69
2019-02-02T17:08:57.719Z,1.58
2019-02-02T17:11:28.590Z,1.68
2019-02-02T17:13:59.250Z,1.65
2019-02-02T17:16:29.896Z,1.66
2019-02-02T17:19:00.479Z,1.65
2019-02-02T17:21:31.084Z,1.62
2019-02-02T17:24:01.706Z,1.75
2019-02-02T17:26:32.303Z,1.74
2019-02-02T17:29:02.918Z,1.80
2019-02-02T17:31:33.687Z,1.69
2019-02-02T17:34:04.409Z,1.69
2019-02-02T17:36:35.126Z,1.73
2019-02-02T17:39:07.734Z,1.72
2019-02-02T17:41:38.501Z,1.63
2019-02-02T17:44:09.740Z,1.68
2019-02-02T17:46:47.170Z,1.60
2019-02-02T17:49:15.211Z,1.68
2019-02-02T17:54:21.066Z,1.70
2019-02-02T17:57:00.428Z,1.65
2019-02-02T17:59:31.097Z,1.59
2019-02-02T18:02:02.745Z,1.62
2019-02-02T18:04:40.998Z,1.57
2019-02-02T18:07:06.243Z,1.58
2019-02-02T18:09:37.001Z,1.53
2019-02-02T18:12:07.687Z,1.52
2019-02-02T18:14:40.977Z,1.48
2019-02-02T18:17:14.371Z,1.47
2019-02-02T18:33:32.659Z,1.41
2019-02-02T18:36:03.387Z,1.40
2019-02-02T18:38:34.359Z,1.47
2019-02-02T18:41:05.468Z,1.48
2019-02-02T18:43:39.980Z,1.38
2019-02-02T18:46:20.182Z,1.41
2019-02-02T18:48:51.245Z,1.47
2019-02-02T18:51:22.230Z,1.41
2019-02-02T18:53:53.030Z,1.40
2019-02-02T18:56:23.664Z,1.38
2019-02-02T18:58:58.203Z,1.49
2019-02-02T19:01:29.056Z,1.36
2019-02-02T19:04:04.793Z,1.27
2019-02-02T19:06:40.051Z,1.29
2019-02-02T19:09:27.612Z,1.31
2019-02-02T19:15:02.653Z,1.28
2019-02-02T19:17:33.526Z,1.25
2019-02-02T19:20:08.759Z,1.28
2019-02-02T19:55:29.388Z,1.32
2019-02-02T19:58:00.344Z,1.34
2019-02-02T20:00:33.167Z,1.34
2019-02-02T20:03:05.021Z,1.22
2019-02-02T20:05:36.207Z,1.14
2019-02-02T20:08:07.299Z,1.20
2019-02-02T20:10:38.635Z,1.22
2019-02-02T20:13:10.365Z,1.22
2019-02-02T20:15:41.182Z,1.24
2019-02-02T20:18:12.702Z,1.26
2019-02-02T20:20:44.055Z,1.29
2019-02-02T20:23:14.994Z,1.21
2019-02-02T20:25:46.611Z,1.29
2019-02-02T20:28:17.643Z,1.31
2019-02-02T20:31:56.896Z,1.27
2019-02-02T21:14:51.187Z,1.36
2019-02-02T21:17:21.856Z,1.34
2019-02-02T21:19:52.576Z,1.35
2019-02-02T21:22:23.369Z,1.34
2019-02-02T21:24:54.107Z,1.40
2019-02-02T21:27:25.001Z,1.41
2019-02-02T21:29:56.040Z,1.38
2019-02-02T21:32:26.614Z,1.35
2019-02-02T21:35:02.006Z,1.37
2019-02-02T21:37:33.180Z,1.41
2019-02-02T21:40:30.356Z,1.41
2019-02-02T21:43:01.310Z,1.37
2019-02-02T21:45:32.316Z,1.41
2019-02-02T21:48:02.990Z,1.49
2019-02-02T21:50:33.534Z,1.35
2019-02-02T21:53:04.138Z,1.33
2019-02-02T21:55:34.827Z,1.38
2019-02-02T21:58:05.416Z,1.49
2019-02-02T22:00:41.799Z,1.40
2019-02-02T22:03:12.494Z,1.44
2019-02-02T22:05:42.994Z,1.34
2019-02-02T22:08:13.742Z,1.36
2019-02-02T22:10:44.506Z,1.29
2019-02-02T22:13:15.591Z,1.33
2019-02-02T22:15:46.229Z,1.33
2019-02-02T22:18:16.713Z,1.34
2019-02-02T22:20:47.171Z,1.37
2019-02-02T22:23:17.756Z,1.38
2019-02-02T22:25:49.928Z,1.38
2019-02-02T22:28:20.453Z,1.34
2019-02-02T22:30:51.060Z,1.37
2019-02-02T22:33:21.701Z,1.32
2019-02-02T22:35:52.239Z,1.34
2019-02-02T22:38:22.865Z,1.31
2019-02-02T22:40:53.362Z,1.38
2019-02-02T22:43:23.919Z,1.31
2019-02-02T22:45:54.544Z,1.32
2019-02-02T22:48:25.044Z,1.36
2019-02-02T22:50:55.635Z,1.30
2019-02-02T22:53:26.182Z,1.30
2019-02-02T22:55:56.738Z,1.23
2019-02-02T22:58:27.599Z,1.26
2019-02-02T23:01:33.127Z,1.21
2019-02-02T23:04:59.000Z,1.20
2019-02-02T23:08:39.836Z,1.25
2019-02-02T23:11:33.921Z,1.25
2019-02-02T23:14:40.864Z,1.23
2019-02-02T23:17:11.375Z,1.37
2019-02-02T23:19:41.922Z,1.26
2019-02-02T23:22:12.476Z,1.25
2019-02-02T23:24:42.983Z,1.28
2019-02-02T23:27:13.470Z,1.25
2019-02-02T23:29:44.074Z,1.31
2019-02-02T23:32:14.605Z,1.27
2019-02-02T23:34:45.103Z,1.27
2019-02-02T23:37:15.697Z,1.25
2019-02-02T23:39:46.172Z,1.28
2019-02-02T23:42:16.724Z,1.27
2019-02-02T23:44:47.281Z,1.23
2019-02-02T23:47:17.810Z,1.28
2019-02-02T23:49:48.288Z,1.28
2019-02-02T23:52:18.805Z,1.26
2019-02-02T23:54:49.330Z,1.23
2019-02-02T23:57:19.838Z,1.21
2019-02-02T23:59:50.572Z,1.26
